sensor_id;sensor_type;location;lat;lon;timestamp;temperature;humidity
55996;DHT22;66897;51.012;4.634;2024-01-15T16:25:38;18.40;39.70
55996;DHT22;66897;51.012;4.634;2024-01-15T16:28:04;8.70;57.20
55996;DHT22;66897;51.012;4.634;2024-01-15T16:30:30;6.20;65.40
55996;DHT22;66897;51.012;4.634;2024-01-15T16:32:56;4.30;73.80
55996;DHT22;66897;51.012;4.634;2024-01-15T16:35:22;3.80;77.10
55996;DHT22;66897;51.012;4.634;2024-01-15T16:37:48;3.30;79.30
55996;DHT22;66897;51.012;4.634;2024-01-15T16:40:13;2.60;83.70
55996;DHT22;66897;51.012;4.634;2024-01-15T16:42:39;2.40;85.20
55996;DHT22;66897;51.012;4.634;2024-01-15T16:45:05;2.40;85.70
55996;DHT22;66897;51.012;4.634;2024-01-15T16:47:31;2.40;85.60
55996;DHT22;66897;51.012;4.634;2024-01-15T16:49:57;2.50;85.80
55996;DHT22;66897;51.012;4.634;2024-01-15T16:52:23;2.70;84.70
55996;DHT22;66897;51.012;4.634;2024-01-15T16:54:48;2.70;84.40
55996;DHT22;66897;51.012;4.634;2024-01-15T16:57:15;2.70;85.30
55996;DHT22;66897;51.012;4.634;2024-01-15T16:59:41;2.60;85.90
55996;DHT22;66897;51.012;4.634;2024-01-15T17:02:06;2.60;85.50
55996;DHT22;66897;51.012;4.634;2024-01-15T17:04:32;2.50;86.70
55996;DHT22;66897;51.012;4.634;2024-01-15T17:06:58;2.30;86.70
55996;DHT22;66897;51.012;4.634;2024-01-15T17:09:23;2.40;87.50
55996;DHT22;66897;51.012;4.634;2024-01-15T17:11:49;2.70;86.00
55996;DHT22;66897;51.012;4.634;2024-01-15T17:14:15;2.70;85.90
55996;DHT22;66897;51.012;4.634;2024-01-15T17:16:42;2.70;85.10
55996;DHT22;66897;51.012;4.634;2024-01-15T17:19:08;2.70;85.20
55996;DHT22;66897;51.012;4.634;2024-01-15T17:21:34;2.70;85.10
55996;DHT22;66897;51.012;4.634;2024-01-15T17:24:00;2.80;84.50
55996;DHT22;66897;51.012;4.634;2024-01-15T17:26:26;2.60;85.60
55996;DHT22;66897;51.012;4.634;2024-01-15T17:28:51;2.70;86.20
55996;DHT22;66897;51.012;4.634;2024-01-15T17:31:17;2.80;85.10
55996;DHT22;66897;51.012;4.634;2024-01-15T17:33:43;2.30;86.50
55996;DHT22;66897;51.012;4.634;2024-01-15T17:36:08;2.20;87.80
55996;DHT22;66897;51.012;4.634;2024-01-15T17:38:34;2.20;88.00
55996;DHT22;66897;51.012;4.634;2024-01-15T17:41:01;2.00;89.50
55996;DHT22;66897;51.012;4.634;2024-01-15T17:43:27;1.70;90.20
55996;DHT22;66897;51.012;4.634;2024-01-15T17:45:53;1.70;91.00
55996;DHT22;66897;51.012;4.634;2024-01-15T17:48:21;1.60;91.40
55996;DHT22;66897;51.012;4.634;2024-01-15T17:50:47;1.60;91.40
55996;DHT22;66897;51.012;4.634;2024-01-15T17:53:12;1.50;91.70
55996;DHT22;66897;51.012;4.634;2024-01-15T17:55:39;1.70;91.40
55996;DHT22;66897;51.012;4.634;2024-01-15T17:58:05;1.70;91.20
55996;DHT22;66897;51.012;4.634;2024-01-15T18:00:31;1.50;91.30
55996;DHT22;66897;51.012;4.634;2024-01-15T18:02:57;1.40;91.70
55996;DHT22;66897;51.012;4.634;2024-01-15T18:05:23;1.50;91.90
55996;DHT22;66897;51.012;4.634;2024-01-15T18:07:48;1.50;91.70
55996;DHT22;66897;51.012;4.634;2024-01-15T18:10:14;1.40;91.70
55996;DHT22;66897;51.012;4.634;2024-01-15T18:12:40;1.30;92.10
55996;DHT22;66897;51.012;4.634;2024-01-15T18:15:06;1.30;92.10
55996;DHT22;66897;51.012;4.634;2024-01-15T18:17:32;1.50;91.90
55996;DHT22;66897;51.012;4.634;2024-01-15T18:20:01;1.40;91.70
55996;DHT22;66897;51.012;4.634;2024-01-15T18:22:27;1.10;92.20
55996;DHT22;66897;51.012;4.634;2024-01-15T18:24:53;1.10;92.70
55996;DHT22;66897;51.012;4.634;2024-01-15T18:27:19;1.20;92.90
55996;DHT22;66897;51.012;4.634;2024-01-15T18:29:45;1.20;92.60
55996;DHT22;66897;51.012;4.634;2024-01-15T18:32:11;1.20;92.50
55996;DHT22;66897;51.012;4.634;2024-01-15T18:34:36;1.50;92.00
55996;DHT22;66897;51.012;4.634;2024-01-15T18:37:02;1.60;91.80
55996;DHT22;66897;51.012;4.634;2024-01-15T18:39:28;1.70;91.30
55996;DHT22;66897;51.012;4.634;2024-01-15T18:41:54;1.80;90.90
55996;DHT22;66897;51.012;4.634;2024-01-15T18:44:20;1.70;91.20
55996;DHT22;66897;51.012;4.634;2024-01-15T18:46:47;1.70;90.80
55996;DHT22;66897;51.012;4.634;2024-01-15T18:49:13;2.00;90.60
55996;DHT22;66897;51.012;4.634;2024-01-15T18:51:39;1.80;90.60
55996;DHT22;66897;51.012;4.634;2024-01-15T18:54:05;1.80;91.00
55996;DHT22;66897;51.012;4.634;2024-01-15T18:56:31;2.00;90.90
55996;DHT22;66897;51.012;4.634;2024-01-15T18:58:57;2.00;90.60
55996;DHT22;66897;51.012;4.634;2024-01-15T19:01:29;2.20;90.40
55996;DHT22;66897;51.012;4.634;2024-01-15T19:03:56;2.10;90.20
55996;DHT22;66897;51.012;4.634;2024-01-15T19:06:22;2.20;90.20
55996;DHT22;66897;51.012;4.634;2024-01-15T19:08:49;2.10;90.30
55996;DHT22;66897;51.012;4.634;2024-01-15T19:11:15;2.10;90.40
55996;DHT22;66897;51.012;4.634;2024-01-15T19:13:41;1.90;90.80
55996;DHT22;66897;51.012;4.634;2024-01-15T19:16:07;2.00;90.80
55996;DHT22;66897;51.012;4.634;2024-01-15T19:18:33;2.30;90.50
55996;DHT22;66897;51.012;4.634;2024-01-15T19:21:02;2.30;90.10
55996;DHT22;66897;51.012;4.634;2024-01-15T19:23:31;2.30;90.10
55996;DHT22;66897;51.012;4.634;2024-01-15T19:25:57;2.30;90.00
55996;DHT22;66897;51.012;4.634;2024-01-15T19:28:23;2.30;89.50
55996;DHT22;66897;51.012;4.634;2024-01-15T19:30:48;2.30;89.10
55996;DHT22;66897;51.012;4.634;2024-01-15T19:33:15;2.10;89.90
55996;DHT22;66897;51.012;4.634;2024-01-15T19:35:41;2.10;90.10
55996;DHT22;66897;51.012;4.634;2024-01-15T19:38:07;2.00;90.00
55996;DHT22;66897;51.012;4.634;2024-01-15T19:40:34;2.00;90.20
55996;DHT22;66897;51.012;4.634;2024-01-15T19:43:00;2.00;90.20
55996;DHT22;66897;51.012;4.634;2024-01-15T19:45:29;2.10;90.10
55996;DHT22;66897;51.012;4.634;2024-01-15T19:47:55;2.00;90.10
55996;DHT22;66897;51.012;4.634;2024-01-15T19:50:21;2.10;89.90
55996;DHT22;66897;51.012;4.634;2024-01-15T19:52:47;2.10;89.60
55996;DHT22;66897;51.012;4.634;2024-01-15T19:55:13;2.30;88.60
55996;DHT22;66897;51.012;4.634;2024-01-15T19:57:39;2.10;89.70
55996;DHT22;66897;51.012;4.634;2024-01-15T20:00:06;2.20;89.20
55996;DHT22;66897;51.012;4.634;2024-01-15T20:02:35;2.20;88.80
55996;DHT22;66897;51.012;4.634;2024-01-15T20:05:00;2.00;89.30
55996;DHT22;66897;51.012;4.634;2024-01-15T20:07:26;1.90;89.90
55996;DHT22;66897;51.012;4.634;2024-01-15T20:09:52;2.20;89.60
55996;DHT22;66897;51.012;4.634;2024-01-15T20:12:19;2.30;89.00
55996;DHT22;66897;51.012;4.634;2024-01-15T20:14:46;2.30;88.40
55996;DHT22;66897;51.012;4.634;2024-01-15T20:17:11;2.20;88.20
55996;DHT22;66897;51.012;4.634;2024-01-15T20:19:38;2.20;88.30
55996;DHT22;66897;51.012;4.634;2024-01-15T20:22:04;2.50;88.30
55996;DHT22;66897;51.012;4.634;2024-01-15T20:24:29;2.50;87.60
55996;DHT22;66897;51.012;4.634;2024-01-15T20:26:55;2.50;87.00
55996;DHT22;66897;51.012;4.634;2024-01-15T20:29:21;2.30;87.60
55996;DHT22;66897;51.012;4.634;2024-01-15T20:31:46;2.30;87.60
55996;DHT22;66897;51.012;4.634;2024-01-15T20:34:12;2.10;88.50
55996;DHT22;66897;51.012;4.634;2024-01-15T20:36:38;1.90;89.30
55996;DHT22;66897;51.012;4.634;2024-01-15T20:39:04;2.00;89.50
55996;DHT22;66897;51.012;4.634;2024-01-15T20:41:30;1.90;89.40
55996;DHT22;66897;51.012;4.634;2024-01-15T20:43:56;2.30;88.60
55996;DHT22;66897;51.012;4.634;2024-01-15T20:46:22;1.90;88.30
55996;DHT22;66897;51.012;4.634;2024-01-15T20:48:48;1.90;89.30
55996;DHT22;66897;51.012;4.634;2024-01-15T20:51:14;2.00;89.30
55996;DHT22;66897;51.012;4.634;2024-01-15T20:53:41;2.10;88.70
55996;DHT22;66897;51.012;4.634;2024-01-15T20:56:09;2.10;88.00
55996;DHT22;66897;51.012;4.634;2024-01-15T20:58:35;2.30;87.30
55996;DHT22;66897;51.012;4.634;2024-01-15T21:01:04;2.30;86.80
55996;DHT22;66897;51.012;4.634;2024-01-15T21:03:30;2.00;87.60
55996;DHT22;66897;51.012;4.634;2024-01-15T21:05:56;1.90;88.40
55996;DHT22;66897;51.012;4.634;2024-01-15T21:08:22;1.70;88.30
55996;DHT22;66897;51.012;4.634;2024-01-15T21:10:48;1.80;88.70
55996;DHT22;66897;51.012;4.634;2024-01-15T21:13:13;1.80;87.90
55996;DHT22;66897;51.012;4.634;2024-01-15T21:15:39;1.90;87.80
55996;DHT22;66897;51.012;4.634;2024-01-15T21:18:05;1.70;88.70
55996;DHT22;66897;51.012;4.634;2024-01-15T21:20:31;1.90;88.40
55996;DHT22;66897;51.012;4.634;2024-01-15T21:22:57;2.00;88.10
55996;DHT22;66897;51.012;4.634;2024-01-15T21:25:23;2.10;87.30
55996;DHT22;66897;51.012;4.634;2024-01-15T21:27:49;2.10;87.70
55996;DHT22;66897;51.012;4.634;2024-01-15T21:30:14;2.20;87.80
55996;DHT22;66897;51.012;4.634;2024-01-15T21:32:41;2.20;87.90
55996;DHT22;66897;51.012;4.634;2024-01-15T21:35:07;2.20;86.80
55996;DHT22;66897;51.012;4.634;2024-01-15T21:37:33;2.40;85.70
55996;DHT22;66897;51.012;4.634;2024-01-15T21:39:59;2.40;86.00
55996;DHT22;66897;51.012;4.634;2024-01-15T21:42:24;2.30;86.70
55996;DHT22;66897;51.012;4.634;2024-01-15T21:44:50;2.40;85.90
55996;DHT22;66897;51.012;4.634;2024-01-15T21:47:16;2.40;85.80
55996;DHT22;66897;51.012;4.634;2024-01-15T21:49:42;2.30;86.40
55996;DHT22;66897;51.012;4.634;2024-01-15T21:52:09;2.40;85.70
55996;DHT22;66897;51.012;4.634;2024-01-15T21:54:35;2.50;86.30
55996;DHT22;66897;51.012;4.634;2024-01-15T21:57:00;2.50;85.30
55996;DHT22;66897;51.012;4.634;2024-01-15T21:59:26;2.60;84.90
55996;DHT22;66897;51.012;4.634;2024-01-15T22:01:52;2.60;85.30
55996;DHT22;66897;51.012;4.634;2024-01-15T22:04:21;2.40;85.20
55996;DHT22;66897;51.012;4.634;2024-01-15T22:06:47;2.30;85.20
55996;DHT22;66897;51.012;4.634;2024-01-15T22:09:13;2.30;85.70
55996;DHT22;66897;51.012;4.634;2024-01-15T22:11:38;2.40;85.50
55996;DHT22;66897;51.012;4.634;2024-01-15T22:14:04;2.40;85.50
55996;DHT22;66897;51.012;4.634;2024-01-15T22:16:30;2.30;86.10
55996;DHT22;66897;51.012;4.634;2024-01-15T22:18:56;2.40;85.60
55996;DHT22;66897;51.012;4.634;2024-01-15T22:21:21;2.40;85.80
55996;DHT22;66897;51.012;4.634;2024-01-15T22:23:47;2.40;85.50
55996;DHT22;66897;51.012;4.634;2024-01-15T22:26:13;2.50;85.50
55996;DHT22;66897;51.012;4.634;2024-01-15T22:28:39;2.40;85.10
55996;DHT22;66897;51.012;4.634;2024-01-15T22:31:05;2.40;84.40
55996;DHT22;66897;51.012;4.634;2024-01-15T22:33:31;2.20;85.80
55996;DHT22;66897;51.012;4.634;2024-01-15T22:35:56;2.30;84.70
55996;DHT22;66897;51.012;4.634;2024-01-15T22:38:22;2.50;85.00
55996;DHT22;66897;51.012;4.634;2024-01-15T22:40:48;2.30;84.50
55996;DHT22;66897;51.012;4.634;2024-01-15T22:43:13;2.20;83.70
55996;DHT22;66897;51.012;4.634;2024-01-15T22:45:39;2.20;84.90
55996;DHT22;66897;51.012;4.634;2024-01-15T22:48:05;2.20;85.10
55996;DHT22;66897;51.012;4.634;2024-01-15T22:50:31;2.30;85.40
55996;DHT22;66897;51.012;4.634;2024-01-15T22:52:56;2.50;85.10
55996;DHT22;66897;51.012;4.634;2024-01-15T22:55:22;2.30;84.80
55996;DHT22;66897;51.012;4.634;2024-01-15T22:57:48;2.50;83.70
55996;DHT22;66897;51.012;4.634;2024-01-15T23:00:14;2.60;82.80
55996;DHT22;66897;51.012;4.634;2024-01-15T23:02:46;2.40;82.50
55996;DHT22;66897;51.012;4.634;2024-01-15T23:05:12;2.10;85.60
55996;DHT22;66897;51.012;4.634;2024-01-15T23:07:38;2.30;84.10
55996;DHT22;66897;51.012;4.634;2024-01-15T23:10:06;2.40;83.70
55996;DHT22;66897;51.012;4.634;2024-01-15T23:12:36;2.40;84.00
55996;DHT22;66897;51.012;4.634;2024-01-15T23:15:02;2.40;84.20
55996;DHT22;66897;51.012;4.634;2024-01-15T23:17:29;2.40;83.40
55996;DHT22;66897;51.012;4.634;2024-01-15T23:19:55;2.20;84.10
55996;DHT22;66897;51.012;4.634;2024-01-15T23:22:21;2.00;84.90
55996;DHT22;66897;51.012;4.634;2024-01-15T23:24:47;2.00;86.00
55996;DHT22;66897;51.012;4.634;2024-01-15T23:27:12;2.10;85.70
55996;DHT22;66897;51.012;4.634;2024-01-15T23:29:38;2.00;85.00
55996;DHT22;66897;51.012;4.634;2024-01-15T23:32:04;1.90;85.30
55996;DHT22;66897;51.012;4.634;2024-01-15T23:34:30;2.00;85.60
55996;DHT22;66897;51.012;4.634;2024-01-15T23:36:56;2.10;86.20
55996;DHT22;66897;51.012;4.634;2024-01-15T23:39:22;2.10;85.30
55996;DHT22;66897;51.012;4.634;2024-01-15T23:41:47;2.30;84.10
55996;DHT22;66897;51.012;4.634;2024-01-15T23:44:13;2.40;84.20
55996;DHT22;66897;51.012;4.634;2024-01-15T23:46:39;2.30;84.00
55996;DHT22;66897;51.012;4.634;2024-01-15T23:49:04;2.20;84.30
55996;DHT22;66897;51.012;4.634;2024-01-15T23:51:30;2.30;83.60
55996;DHT22;66897;51.012;4.634;2024-01-15T23:53:56;2.40;83.50
55996;DHT22;66897;51.012;4.634;2024-01-15T23:56:22;2.50;83.70
55996;DHT22;66897;51.012;4.634;2024-01-15T23:58:49;2.40;83.50
